SAMR/AFA METAR and TAF weather

Enter ICAO airport designator
Station Type Date Time Source
SAMR METAR 2020/06/30 12:20 UTC NOAA

SAMR 301220Z 32008KT 9999 FEW020 M03/M04 Q1021


Station Type Date Time Source
SAMR Decoded METAR 2020/06/30 12:20 UTC NOAA

San Rafael Aerodrome, Argentina (SAMR) 34-35S 068-24W 748M
Jun 30, 2020 - 08:20 AM EDT / 2020.06.30 1220 UTC
Wind: from the NW (320 degrees) at 9 MPH (8 KT):0
Visibility: greater than 7 mile(s):0
Sky conditions: mostly clear
Temperature: 26 F (-3 C)
Windchill: 17 F (-8 C):1
Dew Point: 24 F (-4 C)
Relative Humidity: 92%
Pressure (altimeter): 30.15 in. Hg (1021 hPa)
ob: SAMR 301220Z 32008KT 9999 FEW020 M03/M04 Q1021
cycle: 12

Station Type Date Time Source
SAMR TAF 2020/06/11 00:21 UTC NOAA

TAF SAMR 112300Z 1200/1224 27005KT 9999 FEW030 SCT080 TX13/1220Z TN02/1210Z
BECMG 1202/1204 18010KT 9999 SCT030 OVC070

Example: see airport list